sensor_id;sensor_type;location;lat;lon;timestamp;temperature;humidity
66586;SHT30;53444;45.822;16.092;2022-09-09T00:01:08;20.35;84.53
66586;SHT30;53444;45.822;16.092;2022-09-09T00:03:57;20.34;84.92
66586;SHT30;53444;45.822;16.092;2022-09-09T00:06:58;20.38;84.88
66586;SHT30;53444;45.822;16.092;2022-09-09T00:09:36;20.44;84.79
66586;SHT30;53444;45.822;16.092;2022-09-09T00:12:11;20.49;84.56
66586;SHT30;53444;45.822;16.092;2022-09-09T00:15:05;20.49;84.55
66586;SHT30;53444;45.822;16.092;2022-09-09T00:17:43;20.58;84.44
66586;SHT30;53444;45.822;16.092;2022-09-09T00:20:23;20.53;84.56
66586;SHT30;53444;45.822;16.092;2022-09-09T00:23:12;20.51;84.68
66586;SHT30;53444;45.822;16.092;2022-09-09T00:26:02;20.44;85.20
66586;SHT30;53444;45.822;16.092;2022-09-09T00:28:48;20.49;84.90
66586;SHT30;53444;45.822;16.092;2022-09-09T00:31:36;20.45;84.73
66586;SHT30;53444;45.822;16.092;2022-09-09T00:34:17;20.31;85.45
66586;SHT30;53444;45.822;16.092;2022-09-09T00:36:52;20.04;86.37
66586;SHT30;53444;45.822;16.092;2022-09-09T00:39:34;20.01;86.75
66586;SHT30;53444;45.822;16.092;2022-09-09T00:42:18;20.08;86.42
66586;SHT30;53444;45.822;16.092;2022-09-09T00:45:01;20.05;86.56
66586;SHT30;53444;45.822;16.092;2022-09-09T00:47:43;20.00;86.36
66586;SHT30;53444;45.822;16.092;2022-09-09T00:50:35;19.87;86.93
66586;SHT30;53444;45.822;16.092;2022-09-09T00:53:27;19.88;87.06
66586;SHT30;53444;45.822;16.092;2022-09-09T00:56:05;19.81;87.35
66586;SHT30;53444;45.822;16.092;2022-09-09T00:58:57;19.85;86.86
66586;SHT30;53444;45.822;16.092;2022-09-09T01:01:27;19.83;87.03
66586;SHT30;53444;45.822;16.092;2022-09-09T01:03:59;19.94;86.67
66586;SHT30;53444;45.822;16.092;2022-09-09T01:06:49;20.05;86.25
66586;SHT30;53444;45.822;16.092;2022-09-09T01:09:25;20.15;85.50
66586;SHT30;53444;45.822;16.092;2022-09-09T01:12:11;20.25;84.78
66586;SHT30;53444;45.822;16.092;2022-09-09T01:14:50;20.25;84.53
66586;SHT30;53444;45.822;16.092;2022-09-09T01:17:31;20.25;84.45
66586;SHT30;53444;45.822;16.092;2022-09-09T01:20:17;20.24;84.10
66586;SHT30;53444;45.822;16.092;2022-09-09T01:23:25;20.32;83.45
66586;SHT30;53444;45.822;16.092;2022-09-09T01:26:15;20.36;83.68
66586;SHT30;53444;45.822;16.092;2022-09-09T01:28:52;20.38;82.14
66586;SHT30;53444;45.822;16.092;2022-09-09T01:31:32;20.46;80.43
66586;SHT30;53444;45.822;16.092;2022-09-09T01:34:10;20.51;80.16
66586;SHT30;53444;45.822;16.092;2022-09-09T01:36:46;20.56;80.01
66586;SHT30;53444;45.822;16.092;2022-09-09T01:39:28;20.59;79.63
66586;SHT30;53444;45.822;16.092;2022-09-09T01:42:11;20.59;79.17
66586;SHT30;53444;45.822;16.092;2022-09-09T01:44:44;20.51;78.45
66586;SHT30;53444;45.822;16.092;2022-09-09T01:47:15;20.55;77.89
66586;SHT30;53444;45.822;16.092;2022-09-09T01:49:48;20.58;76.99
66586;SHT30;53444;45.822;16.092;2022-09-09T01:52:20;20.53;77.38
66586;SHT30;53444;45.822;16.092;2022-09-09T01:54:57;20.52;76.79
66586;SHT30;53444;45.822;16.092;2022-09-09T01:57:41;20.42;76.14
66586;SHT30;53444;45.822;16.092;2022-09-09T02:00:20;20.45;75.87
66586;SHT30;53444;45.822;16.092;2022-09-09T02:02:59;20.51;75.83
66586;SHT30;53444;45.822;16.092;2022-09-09T02:05:44;20.46;75.46
66586;SHT30;53444;45.822;16.092;2022-09-09T02:08:23;20.36;75.79
66586;SHT30;53444;45.822;16.092;2022-09-09T02:11:09;20.38;75.37
66586;SHT30;53444;45.822;16.092;2022-09-09T02:13:48;20.38;74.82
66586;SHT30;53444;45.822;16.092;2022-09-09T02:16:42;20.22;75.01
66586;SHT30;53444;45.822;16.092;2022-09-09T02:19:26;20.27;74.96
66586;SHT30;53444;45.822;16.092;2022-09-09T02:21:59;20.27;74.92
66586;SHT30;53444;45.822;16.092;2022-09-09T02:24:31;20.22;74.80
66586;SHT30;53444;45.822;16.092;2022-09-09T02:27:12;20.25;74.32
66586;SHT30;53444;45.822;16.092;2022-09-09T02:30:02;20.22;74.26
66586;SHT30;53444;45.822;16.092;2022-09-09T02:32:36;20.20;73.77
66586;SHT30;53444;45.822;16.092;2022-09-09T02:35:10;20.21;73.04
66586;SHT30;53444;45.822;16.092;2022-09-09T02:37:51;20.22;73.08
66586;SHT30;53444;45.822;16.092;2022-09-09T02:40:34;20.18;73.11
66586;SHT30;53444;45.822;16.092;2022-09-09T02:43:15;20.20;72.74
66586;SHT30;53444;45.822;16.092;2022-09-09T02:46:02;20.20;72.81
66586;SHT30;53444;45.822;16.092;2022-09-09T02:48:45;20.25;72.50
66586;SHT30;53444;45.822;16.092;2022-09-09T02:51:20;20.27;72.50
66586;SHT30;53444;45.822;16.092;2022-09-09T02:54:03;20.28;72.48
66586;SHT30;53444;45.822;16.092;2022-09-09T02:56:39;20.31;72.43
66586;SHT30;53444;45.822;16.092;2022-09-09T02:59:22;20.34;72.51
66586;SHT30;53444;45.822;16.092;2022-09-09T03:01:58;20.34;72.44
66586;SHT30;53444;45.822;16.092;2022-09-09T03:04:47;20.34;72.42
66586;SHT30;53444;45.822;16.092;2022-09-09T03:07:51;20.27;72.73
66586;SHT30;53444;45.822;16.092;2022-09-09T03:10:31;20.17;73.19
66586;SHT30;53444;45.822;16.092;2022-09-09T03:13:09;20.21;73.15
66586;SHT30;53444;45.822;16.092;2022-09-09T03:15:49;20.25;73.26
66586;SHT30;53444;45.822;16.092;2022-09-09T03:18:27;20.20;73.47
66586;SHT30;53444;45.822;16.092;2022-09-09T03:21:02;20.22;73.57
66586;SHT30;53444;45.822;16.092;2022-09-09T03:23:45;20.14;73.97
66586;SHT30;53444;45.822;16.092;2022-09-09T03:26:17;20.11;74.18
66586;SHT30;53444;45.822;16.092;2022-09-09T03:29:06;20.05;74.60
66586;SHT30;53444;45.822;16.092;2022-09-09T03:31:37;20.10;74.51
66586;SHT30;53444;45.822;16.092;2022-09-09T03:34:23;20.13;74.91
66586;SHT30;53444;45.822;16.092;2022-09-09T03:36:51;20.14;75.04
66586;SHT30;53444;45.822;16.092;2022-09-09T03:39:34;20.13;75.01
66586;SHT30;53444;45.822;16.092;2022-09-09T03:42:08;20.13;75.13
66586;SHT30;53444;45.822;16.092;2022-09-09T03:44:52;20.18;75.03
66586;SHT30;53444;45.822;16.092;2022-09-09T03:47:32;20.14;75.27
66586;SHT30;53444;45.822;16.092;2022-09-09T03:50:33;20.14;75.40
66586;SHT30;53444;45.822;16.092;2022-09-09T03:53:08;20.14;75.36
66586;SHT30;53444;45.822;16.092;2022-09-09T03:55:53;20.14;75.49
66586;SHT30;53444;45.822;16.092;2022-09-09T03:58:24;20.13;75.45
66586;SHT30;53444;45.822;16.092;2022-09-09T04:01:12;20.10;75.52
66586;SHT30;53444;45.822;16.092;2022-09-09T04:04:04;20.05;75.66
66586;SHT30;53444;45.822;16.092;2022-09-09T04:06:36;20.14;75.10
66586;SHT30;53444;45.822;16.092;2022-09-09T04:09:11;20.10;75.06
66586;SHT30;53444;45.822;16.092;2022-09-09T04:11:52;20.14;75.07
66586;SHT30;53444;45.822;16.092;2022-09-09T04:14:23;20.13;74.63
66586;SHT30;53444;45.822;16.092;2022-09-09T04:19:42;20.04;74.30
66586;SHT30;53444;45.822;16.092;2022-09-09T04:22:37;20.05;74.00
66586;SHT30;53444;45.822;16.092;2022-09-09T04:25:09;20.05;73.77
66586;SHT30;53444;45.822;16.092;2022-09-09T04:27:43;20.04;73.84
66586;SHT30;53444;45.822;16.092;2022-09-09T04:30:29;20.03;73.57
66586;SHT30;53444;45.822;16.092;2022-09-09T04:33:02;20.03;73.51
66586;SHT30;53444;45.822;16.092;2022-09-09T04:35:30;20.00;73.67
66586;SHT30;53444;45.822;16.092;2022-09-09T04:38:07;20.01;73.42
66586;SHT30;53444;45.822;16.092;2022-09-09T04:40:42;20.00;73.30
66586;SHT30;53444;45.822;16.092;2022-09-09T04:43:11;19.98;72.86
66586;SHT30;53444;45.822;16.092;2022-09-09T04:45:46;19.97;72.75
66586;SHT30;53444;45.822;16.092;2022-09-09T04:48:15;19.98;72.59
66586;SHT30;53444;45.822;16.092;2022-09-09T04:51:00;19.95;72.85
66586;SHT30;53444;45.822;16.092;2022-09-09T04:53:36;20.00;72.61
66586;SHT30;53444;45.822;16.092;2022-09-09T04:56:10;19.97;72.78
66586;SHT30;53444;45.822;16.092;2022-09-09T04:58:46;19.94;72.81
66586;SHT30;53444;45.822;16.092;2022-09-09T05:01:16;19.97;72.60
66586;SHT30;53444;45.822;16.092;2022-09-09T05:03:55;19.97;72.52
66586;SHT30;53444;45.822;16.092;2022-09-09T05:06:23;20.00;72.65
66586;SHT30;53444;45.822;16.092;2022-09-09T05:08:54;20.10;72.37
66586;SHT30;53444;45.822;16.092;2022-09-09T05:11:26;20.21;72.27
66586;SHT30;53444;45.822;16.092;2022-09-09T05:14:16;20.32;72.24
66586;SHT30;53444;45.822;16.092;2022-09-09T05:16:47;20.31;72.37
66586;SHT30;53444;45.822;16.092;2022-09-09T05:19:32;20.38;72.37
66586;SHT30;53444;45.822;16.092;2022-09-09T05:22:18;20.48;71.97
66586;SHT30;53444;45.822;16.092;2022-09-09T05:24:59;20.52;71.59
66586;SHT30;53444;45.822;16.092;2022-09-09T05:27:40;20.52;72.07
66586;SHT30;53444;45.822;16.092;2022-09-09T05:30:15;20.46;72.79
66586;SHT30;53444;45.822;16.092;2022-09-09T05:32:56;20.52;72.07
66586;SHT30;53444;45.822;16.092;2022-09-09T05:35:39;20.55;72.10
66586;SHT30;53444;45.822;16.092;2022-09-09T05:38:08;20.53;72.32
66586;SHT30;53444;45.822;16.092;2022-09-09T05:40:50;20.56;72.53
66586;SHT30;53444;45.822;16.092;2022-09-09T05:43:28;20.64;72.41
66586;SHT30;53444;45.822;16.092;2022-09-09T05:46:00;20.79;72.10
66586;SHT30;53444;45.822;16.092;2022-09-09T05:48:35;20.83;71.89
66586;SHT30;53444;45.822;16.092;2022-09-09T05:51:04;20.86;71.87
66586;SHT30;53444;45.822;16.092;2022-09-09T05:53:32;20.92;72.00
66586;SHT30;53444;45.822;16.092;2022-09-09T05:56:18;20.97;71.64
66586;SHT30;53444;45.822;16.092;2022-09-09T05:58:48;20.95;71.10
66586;SHT30;53444;45.822;16.092;2022-09-09T06:01:32;20.99;70.70
66586;SHT30;53444;45.822;16.092;2022-09-09T06:04:05;20.97;70.56
66586;SHT30;53444;45.822;16.092;2022-09-09T06:06:40;20.93;70.24
66586;SHT30;53444;45.822;16.092;2022-09-09T06:09:09;20.90;70.49
66586;SHT30;53444;45.822;16.092;2022-09-09T06:11:39;20.92;70.21
66586;SHT30;53444;45.822;16.092;2022-09-09T06:14:11;20.97;70.40
66586;SHT30;53444;45.822;16.092;2022-09-09T06:16:53;20.99;69.63
66586;SHT30;53444;45.822;16.092;2022-09-09T06:19:43;20.95;69.69
66586;SHT30;53444;45.822;16.092;2022-09-09T06:22:11;20.89;69.19
66586;SHT30;53444;45.822;16.092;2022-09-09T06:24:44;20.89;68.51
66586;SHT30;53444;45.822;16.092;2022-09-09T06:27:18;20.87;69.01
66586;SHT30;53444;45.822;16.092;2022-09-09T06:29:49;21.02;68.77
66586;SHT30;53444;45.822;16.092;2022-09-09T06:32:21;21.11;68.77
66586;SHT30;53444;45.822;16.092;2022-09-09T06:34:53;21.23;68.49
66586;SHT30;53444;45.822;16.092;2022-09-09T06:37:33;21.24;68.32
66586;SHT30;53444;45.822;16.092;2022-09-09T06:40:06;21.22;68.12
66586;SHT30;53444;45.822;16.092;2022-09-09T06:42:44;21.28;67.43
66586;SHT30;53444;45.822;16.092;2022-09-09T06:45:20;21.30;67.91
66586;SHT30;53444;45.822;16.092;2022-09-09T06:48:07;21.36;67.79
66586;SHT30;53444;45.822;16.092;2022-09-09T06:50:39;21.43;67.94
66586;SHT30;53444;45.822;16.092;2022-09-09T06:53:16;21.41;67.50
66586;SHT30;53444;45.822;16.092;2022-09-09T06:55:49;21.44;67.52
66586;SHT30;53444;45.822;16.092;2022-09-09T06:58:21;21.43;66.96
66586;SHT30;53444;45.822;16.092;2022-09-09T07:01:02;21.46;66.47
66586;SHT30;53444;45.822;16.092;2022-09-09T07:03:41;21.34;66.74
66586;SHT30;53444;45.822;16.092;2022-09-09T07:06:14;21.41;66.27
66586;SHT30;53444;45.822;16.092;2022-09-09T07:08:48;21.57;66.04
66586;SHT30;53444;45.822;16.092;2022-09-09T07:11:19;21.58;65.38
66586;SHT30;53444;45.822;16.092;2022-09-09T07:13:54;21.58;65.21
66586;SHT30;53444;45.822;16.092;2022-09-09T07:16:27;21.71;65.40
66586;SHT30;53444;45.822;16.092;2022-09-09T07:18:57;21.73;65.13
66586;SHT30;53444;45.822;16.092;2022-09-09T07:21:33;21.82;64.57
66586;SHT30;53444;45.822;16.092;2022-09-09T07:24:14;21.89;64.63
66586;SHT30;53444;45.822;16.092;2022-09-09T07:26:43;21.88;64.48
66586;SHT30;53444;45.822;16.092;2022-09-09T07:29:17;22.02;64.22
66586;SHT30;53444;45.822;16.092;2022-09-09T07:31:45;21.98;63.85
66586;SHT30;53444;45.822;16.092;2022-09-09T07:34:13;22.01;64.00
66586;SHT30;53444;45.822;16.092;2022-09-09T07:36:44;22.15;63.25
66586;SHT30;53444;45.822;16.092;2022-09-09T07:39:13;22.12;63.29
66586;SHT30;53444;45.822;16.092;2022-09-09T07:41:44;22.13;63.43
66586;SHT30;53444;45.822;16.092;2022-09-09T07:44:18;21.98;63.50
66586;SHT30;53444;45.822;16.092;2022-09-09T07:46:47;22.08;63.34
66586;SHT30;53444;45.822;16.092;2022-09-09T07:49:19;22.05;62.99
66586;SHT30;53444;45.822;16.092;2022-09-09T07:51:51;22.36;62.98
66586;SHT30;53444;45.822;16.092;2022-09-09T07:54:21;22.67;62.74
66586;SHT30;53444;45.822;16.092;2022-09-09T07:56:53;22.86;61.81
66586;SHT30;53444;45.822;16.092;2022-09-09T07:59:36;22.89;61.54
66586;SHT30;53444;45.822;16.092;2022-09-09T08:02:17;22.96;61.63
66586;SHT30;53444;45.822;16.092;2022-09-09T08:04:51;22.93;60.99
66586;SHT30;53444;45.822;16.092;2022-09-09T08:07:18;22.89;61.13
66586;SHT30;53444;45.822;16.092;2022-09-09T08:09:47;22.90;61.49
66586;SHT30;53444;45.822;16.092;2022-09-09T08:12:17;22.71;61.18
66586;SHT30;53444;45.822;16.092;2022-09-09T08:17:31;22.79;61.27
66586;SHT30;53444;45.822;16.092;2022-09-09T08:20:02;22.86;61.20
66586;SHT30;53444;45.822;16.092;2022-09-09T08:25:25;23.65;59.54
66586;SHT30;53444;45.822;16.092;2022-09-09T08:27:54;23.59;59.73
66586;SHT30;53444;45.822;16.092;2022-09-09T08:33:13;23.99;58.20
66586;SHT30;53444;45.822;16.092;2022-09-09T08:35:51;24.12;57.56
66586;SHT30;53444;45.822;16.092;2022-09-09T08:38:20;24.09;57.89
66586;SHT30;53444;45.822;16.092;2022-09-09T08:41:18;23.81;58.18
66586;SHT30;53444;45.822;16.092;2022-09-09T08:47:27;24.09;58.13
66586;SHT30;53444;45.822;16.092;2022-09-09T08:50:11;24.03;57.05
66586;SHT30;53444;45.822;16.092;2022-09-09T08:53:00;23.98;57.53
66586;SHT30;53444;45.822;16.092;2022-09-09T08:55:39;23.69;57.67
66586;SHT30;53444;45.822;16.092;2022-09-09T08:58:13;23.72;57.76
66586;SHT30;53444;45.822;16.092;2022-09-09T09:01:19;23.82;57.91
66586;SHT30;53444;45.822;16.092;2022-09-09T09:03:59;23.95;57.90
66586;SHT30;53444;45.822;16.092;2022-09-09T09:06:38;24.16;57.23
66586;SHT30;53444;45.822;16.092;2022-09-09T09:09:16;24.30;56.25
66586;SHT30;53444;45.822;16.092;2022-09-09T09:11:57;24.54;55.83
66586;SHT30;53444;45.822;16.092;2022-09-09T09:14:34;24.70;55.15
66586;SHT30;53444;45.822;16.092;2022-09-09T09:17:09;24.81;55.36
66586;SHT30;53444;45.822;16.092;2022-09-09T09:19:49;25.15;55.25
66586;SHT30;53444;45.822;16.092;2022-09-09T09:22:27;25.52;54.21
66586;SHT30;53444;45.822;16.092;2022-09-09T09:25:11;25.92;52.52
66586;SHT30;53444;45.822;16.092;2022-09-09T09:28:10;26.27;51.70
66586;SHT30;53444;45.822;16.092;2022-09-09T09:31:01;26.45;49.82
66586;SHT30;53444;45.822;16.092;2022-09-09T09:33:50;26.30;49.45
66586;SHT30;53444;45.822;16.092;2022-09-09T09:36:37;26.55;49.87
66586;SHT30;53444;45.822;16.092;2022-09-09T09:39:24;26.65;49.20
66586;SHT30;53444;45.822;16.092;2022-09-09T09:42:12;26.86;48.67
66586;SHT30;53444;45.822;16.092;2022-09-09T09:44:49;27.05;48.94
66586;SHT30;53444;45.822;16.092;2022-09-09T09:47:21;26.68;47.95
66586;SHT30;53444;45.822;16.092;2022-09-09T09:50:16;26.54;47.59
66586;SHT30;53444;45.822;16.092;2022-09-09T09:53:00;26.12;49.18
66586;SHT30;53444;45.822;16.092;2022-09-09T09:55:35;26.40;48.42
66586;SHT30;53444;45.822;16.092;2022-09-09T10:03:54;27.03;45.28
66586;SHT30;53444;45.822;16.092;2022-09-09T10:06:35;27.23;44.78
66586;SHT30;53444;45.822;16.092;2022-09-09T10:09:30;27.20;45.39
66586;SHT30;53444;45.822;16.092;2022-09-09T10:12:05;27.36;44.08
66586;SHT30;53444;45.822;16.092;2022-09-09T10:14:42;27.20;44.45
66586;SHT30;53444;45.822;16.092;2022-09-09T10:17:34;26.98;44.14
66586;SHT30;53444;45.822;16.092;2022-09-09T10:20:29;27.63;44.01
66586;SHT30;53444;45.822;16.092;2022-09-09T10:23:23;27.98;43.80
66586;SHT30;53444;45.822;16.092;2022-09-09T10:32:26;28.27;43.81
66586;SHT30;53444;45.822;16.092;2022-09-09T10:35:08;27.90;44.19
66586;SHT30;53444;45.822;16.092;2022-09-09T10:38:08;27.25;45.71
66586;SHT30;53444;45.822;16.092;2022-09-09T10:41:15;27.25;46.16
66586;SHT30;53444;45.822;16.092;2022-09-09T10:44:16;27.10;46.60
66586;SHT30;53444;45.822;16.092;2022-09-09T10:46:58;27.02;46.80
66586;SHT30;53444;45.822;16.092;2022-09-09T10:49:47;27.10;47.31
66586;SHT30;53444;45.822;16.092;2022-09-09T10:52:35;27.35;47.64
66586;SHT30;53444;45.822;16.092;2022-09-09T10:55:25;27.56;46.37
66586;SHT30;53444;45.822;16.092;2022-09-09T10:58:11;27.25;47.47
66586;SHT30;53444;45.822;16.092;2022-09-09T11:01:01;27.30;47.57
66586;SHT30;53444;45.822;16.092;2022-09-09T11:03:47;27.10;48.03
66586;SHT30;53444;45.822;16.092;2022-09-09T11:06:30;27.12;47.65
66586;SHT30;53444;45.822;16.092;2022-09-09T11:09:15;27.20;47.61
66586;SHT30;53444;45.822;16.092;2022-09-09T11:12:05;27.37;47.67
66586;SHT30;53444;45.822;16.092;2022-09-09T11:14:39;27.80;46.93
66586;SHT30;53444;45.822;16.092;2022-09-09T11:17:20;27.88;46.68
66586;SHT30;53444;45.822;16.092;2022-09-09T11:20:12;28.00;46.28
66586;SHT30;53444;45.822;16.092;2022-09-09T11:22:46;27.76;46.38
66586;SHT30;53444;45.822;16.092;2022-09-09T11:25:25;27.63;46.96
66586;SHT30;53444;45.822;16.092;2022-09-09T11:31:27;27.56;46.47
66586;SHT30;53444;45.822;16.092;2022-09-09T11:34:18;27.46;46.15
66586;SHT30;53444;45.822;16.092;2022-09-09T11:37:14;27.03;47.13
66586;SHT30;53444;45.822;16.092;2022-09-09T11:40:14;27.06;47.36
66586;SHT30;53444;45.822;16.092;2022-09-09T11:43:01;26.76;48.33
66586;SHT30;53444;45.822;16.092;2022-09-09T11:45:52;26.75;48.48
66586;SHT30;53444;45.822;16.092;2022-09-09T11:48:31;26.78;49.01
66586;SHT30;53444;45.822;16.092;2022-09-09T11:51:25;26.71;49.66
66586;SHT30;53444;45.822;16.092;2022-09-09T11:53:57;26.78;49.68
66586;SHT30;53444;45.822;16.092;2022-09-09T11:56:49;26.92;49.20
66586;SHT30;53444;45.822;16.092;2022-09-09T11:59:25;26.88;49.58
66586;SHT30;53444;45.822;16.092;2022-09-09T12:02:12;26.72;50.14
66586;SHT30;53444;45.822;16.092;2022-09-09T12:05:02;26.54;50.74
66586;SHT30;53444;45.822;16.092;2022-09-09T12:07:58;26.55;51.80
66586;SHT30;53444;45.822;16.092;2022-09-09T12:10:30;26.54;52.24
66586;SHT30;53444;45.822;16.092;2022-09-09T12:15:51;26.28;53.13
66586;SHT30;53444;45.822;16.092;2022-09-09T12:18:32;25.82;53.52
66586;SHT30;53444;45.822;16.092;2022-09-09T12:21:17;25.92;53.96
66586;SHT30;53444;45.822;16.092;2022-09-09T12:23:55;25.90;52.92
66586;SHT30;53444;45.822;16.092;2022-09-09T12:26:38;25.89;53.87
66586;SHT30;53444;45.822;16.092;2022-09-09T12:29:33;25.93;53.71
66586;SHT30;53444;45.822;16.092;2022-09-09T12:32:11;25.87;54.22
66586;SHT30;53444;45.822;16.092;2022-09-09T12:34:46;25.21;56.86
66586;SHT30;53444;45.822;16.092;2022-09-09T12:40:22;24.85;56.56
66586;SHT30;53444;45.822;16.092;2022-09-09T12:42:53;24.60;60.73
66586;SHT30;53444;45.822;16.092;2022-09-09T12:45:31;24.44;62.88
66586;SHT30;53444;45.822;16.092;2022-09-09T12:48:21;23.83;66.39
66586;SHT30;53444;45.822;16.092;2022-09-09T12:50:53;24.03;68.01
66586;SHT30;53444;45.822;16.092;2022-09-09T12:53:52;24.40;68.30
66586;SHT30;53444;45.822;16.092;2022-09-09T12:56:27;24.33;69.39
66586;SHT30;53444;45.822;16.092;2022-09-09T12:59:02;24.23;70.64
66586;SHT30;53444;45.822;16.092;2022-09-09T13:01:34;24.40;68.62
66586;SHT30;53444;45.822;16.092;2022-09-09T13:04:20;24.50;67.43
66586;SHT30;53444;45.822;16.092;2022-09-09T13:07:14;24.47;67.99
66586;SHT30;53444;45.822;16.092;2022-09-09T13:09:59;24.32;71.14
66586;SHT30;53444;45.822;16.092;2022-09-09T13:12:37;24.23;70.04
66586;SHT30;53444;45.822;16.092;2022-09-09T13:15:19;23.98;68.63
66586;SHT30;53444;45.822;16.092;2022-09-09T13:18:11;23.66;70.39
66586;SHT30;53444;45.822;16.092;2022-09-09T13:20:51;23.37;73.37
66586;SHT30;53444;45.822;16.092;2022-09-09T13:23:29;23.08;71.85
66586;SHT30;53444;45.822;16.092;2022-09-09T13:29:19;23.44;70.34
66586;SHT30;53444;45.822;16.092;2022-09-09T13:31:57;23.58;70.74
66586;SHT30;53444;45.822;16.092;2022-09-09T13:34:37;23.63;70.17
66586;SHT30;53444;45.822;16.092;2022-09-09T13:37:20;23.79;68.38
66586;SHT30;53444;45.822;16.092;2022-09-09T13:40:14;23.92;69.22
66586;SHT30;53444;45.822;16.092;2022-09-09T13:42:52;24.30;68.72
66586;SHT30;53444;45.822;16.092;2022-09-09T13:45:23;24.33;68.42
66586;SHT30;53444;45.822;16.092;2022-09-09T13:47:54;24.39;66.61
66586;SHT30;53444;45.822;16.092;2022-09-09T13:50:32;24.47;66.21
66586;SHT30;53444;45.822;16.092;2022-09-09T13:53:02;24.60;67.01
66586;SHT30;53444;45.822;16.092;2022-09-09T13:55:30;24.65;67.93
66586;SHT30;53444;45.822;16.092;2022-09-09T13:58:00;24.75;67.32
66586;SHT30;53444;45.822;16.092;2022-09-09T14:00:31;24.70;67.37
66586;SHT30;53444;45.822;16.092;2022-09-09T14:03:06;24.47;66.18
66586;SHT30;53444;45.822;16.092;2022-09-09T14:05:42;24.57;65.55
66586;SHT30;53444;45.822;16.092;2022-09-09T14:08:23;24.23;65.96
66586;SHT30;53444;45.822;16.092;2022-09-09T14:10:50;24.29;65.04
66586;SHT30;53444;45.822;16.092;2022-09-09T14:13:22;24.41;65.80
66586;SHT30;53444;45.822;16.092;2022-09-09T14:16:02;24.33;66.84
66586;SHT30;53444;45.822;16.092;2022-09-09T14:18:31;24.32;65.71
66586;SHT30;53444;45.822;16.092;2022-09-09T14:21:01;24.47;65.94
66586;SHT30;53444;45.822;16.092;2022-09-09T14:23:40;24.36;66.67
66586;SHT30;53444;45.822;16.092;2022-09-09T14:26:12;24.46;66.38
66586;SHT30;53444;45.822;16.092;2022-09-09T14:28:42;24.47;66.65
66586;SHT30;53444;45.822;16.092;2022-09-09T14:31:15;24.32;66.93
66586;SHT30;53444;45.822;16.092;2022-09-09T14:33:47;24.23;66.18
66586;SHT30;53444;45.822;16.092;2022-09-09T14:36:18;24.12;66.99
66586;SHT30;53444;45.822;16.092;2022-09-09T14:38:48;24.09;66.95
66586;SHT30;53444;45.822;16.092;2022-09-09T14:41:18;24.05;67.07
66586;SHT30;53444;45.822;16.092;2022-09-09T14:43:57;24.00;67.65
66586;SHT30;53444;45.822;16.092;2022-09-09T14:46:25;24.02;68.01
66586;SHT30;53444;45.822;16.092;2022-09-09T14:49:02;23.95;67.23
66586;SHT30;53444;45.822;16.092;2022-09-09T14:51:39;23.89;67.23
66586;SHT30;53444;45.822;16.092;2022-09-09T14:54:09;23.88;67.18
66586;SHT30;53444;45.822;16.092;2022-09-09T14:56:38;23.63;67.65
66586;SHT30;53444;45.822;16.092;2022-09-09T14:59:07;23.71;66.94
66586;SHT30;53444;45.822;16.092;2022-09-09T15:01:36;23.57;67.03
66586;SHT30;53444;45.822;16.092;2022-09-09T15:04:04;23.59;67.88
66586;SHT30;53444;45.822;16.092;2022-09-09T15:06:42;23.51;67.65
66586;SHT30;53444;45.822;16.092;2022-09-09T15:09:14;23.45;68.78
66586;SHT30;53444;45.822;16.092;2022-09-09T15:11:44;23.35;69.61
66586;SHT30;53444;45.822;16.092;2022-09-09T15:14:29;23.22;69.37
66586;SHT30;53444;45.822;16.092;2022-09-09T15:17:04;23.24;68.55
66586;SHT30;53444;45.822;16.092;2022-09-09T15:19:32;23.15;68.96
66586;SHT30;53444;45.822;16.092;2022-09-09T15:22:01;23.15;69.23
66586;SHT30;53444;45.822;16.092;2022-09-09T15:24:28;23.08;69.67
66586;SHT30;53444;45.822;16.092;2022-09-09T15:26:56;23.03;70.07
66586;SHT30;53444;45.822;16.092;2022-09-09T15:29:28;22.99;70.53
66586;SHT30;53444;45.822;16.092;2022-09-09T15:32:05;22.90;70.73
66586;SHT30;53444;45.822;16.092;2022-09-09T15:34:49;22.67;71.99
66586;SHT30;53444;45.822;16.092;2022-09-09T15:37:30;22.71;71.39
66586;SHT30;53444;45.822;16.092;2022-09-09T15:40:19;22.60;71.64
66586;SHT30;53444;45.822;16.092;2022-09-09T15:43:02;22.55;71.40
66586;SHT30;53444;45.822;16.092;2022-09-09T15:45:44;22.63;71.46
66586;SHT30;53444;45.822;16.092;2022-09-09T15:48:32;22.73;72.16
66586;SHT30;53444;45.822;16.092;2022-09-09T15:51:02;22.69;73.14
66586;SHT30;53444;45.822;16.092;2022-09-09T15:53:32;22.64;72.66
66586;SHT30;53444;45.822;16.092;2022-09-09T15:55:59;22.61;72.61
66586;SHT30;53444;45.822;16.092;2022-09-09T15:58:30;22.57;71.90
66586;SHT30;53444;45.822;16.092;2022-09-09T16:01:02;22.57;72.07
66586;SHT30;53444;45.822;16.092;2022-09-09T16:03:33;22.53;72.30
66586;SHT30;53444;45.822;16.092;2022-09-09T16:06:05;22.50;71.97
66586;SHT30;53444;45.822;16.092;2022-09-09T16:08:39;22.46;72.17
66586;SHT30;53444;45.822;16.092;2022-09-09T16:11:16;22.42;72.27
66586;SHT30;53444;45.822;16.092;2022-09-09T16:13:48;22.52;71.55
66586;SHT30;53444;45.822;16.092;2022-09-09T16:16:19;22.48;71.72
66586;SHT30;53444;45.822;16.092;2022-09-09T16:18:49;22.56;71.21
66586;SHT30;53444;45.822;16.092;2022-09-09T16:21:29;22.56;70.95
66586;SHT30;53444;45.822;16.092;2022-09-09T16:24:01;22.59;70.46
66586;SHT30;53444;45.822;16.092;2022-09-09T16:26:33;22.69;70.75
66586;SHT30;53444;45.822;16.092;2022-09-09T16:29:04;22.63;70.88
66586;SHT30;53444;45.822;16.092;2022-09-09T16:31:37;22.57;71.39
66586;SHT30;53444;45.822;16.092;2022-09-09T16:34:07;22.66;70.47
66586;SHT30;53444;45.822;16.092;2022-09-09T16:36:36;22.42;70.88
66586;SHT30;53444;45.822;16.092;2022-09-09T16:39:14;22.39;71.49
66586;SHT30;53444;45.822;16.092;2022-09-09T16:41:42;22.40;71.57
66586;SHT30;53444;45.822;16.092;2022-09-09T16:44:18;22.29;72.03
66586;SHT30;53444;45.822;16.092;2022-09-09T16:47:01;22.19;72.29
66586;SHT30;53444;45.822;16.092;2022-09-09T16:49:32;22.12;72.59
66586;SHT30;53444;45.822;16.092;2022-09-09T16:52:04;22.05;72.71
66586;SHT30;53444;45.822;16.092;2022-09-09T16:54:34;21.95;73.19
66586;SHT30;53444;45.822;16.092;2022-09-09T16:57:04;21.94;73.63
66586;SHT30;53444;45.822;16.092;2022-09-09T16:59:37;21.71;74.32
66586;SHT30;53444;45.822;16.092;2022-09-09T17:02:08;21.74;74.34
66586;SHT30;53444;45.822;16.092;2022-09-09T17:04:36;21.69;74.28